sensor_id;sensor_type;location;lat;lon;timestamp;pressure;altitude;pressure_sealevel;temperature;humidity
46944;BME280;32678;43.852;25.952;2022-07-09T00:02:29;100851.81;;;27.88;47.04
46944;BME280;32678;43.852;25.952;2022-07-09T00:07:26;100850.59;;;27.83;46.95
46944;BME280;32678;43.852;25.952;2022-07-09T00:12:23;100855.19;;;27.90;47.43
46944;BME280;32678;43.852;25.952;2022-07-09T00:17:19;100847.66;;;28.02;47.51
46944;BME280;32678;43.852;25.952;2022-07-09T00:22:17;100845.41;;;27.89;47.52
46944;BME280;32678;43.852;25.952;2022-07-09T00:27:13;100847.19;;;27.81;47.82
46944;BME280;32678;43.852;25.952;2022-07-09T00:32:10;100836.59;;;27.79;47.74
46944;BME280;32678;43.852;25.952;2022-07-09T00:37:07;100848.69;;;27.75;47.55
46944;BME280;32678;43.852;25.952;2022-07-09T00:42:05;100847.47;;;27.26;48.45
46944;BME280;32678;43.852;25.952;2022-07-09T00:47:03;100840.69;;;27.22;48.86
46944;BME280;32678;43.852;25.952;2022-07-09T00:52:00;100851.69;;;27.46;48.53
46944;BME280;32678;43.852;25.952;2022-07-09T00:56:57;100852.38;;;27.31;48.92
46944;BME280;32678;43.852;25.952;2022-07-09T01:01:56;100856.44;;;27.35;49.22
46944;BME280;32678;43.852;25.952;2022-07-09T01:06:53;100856.69;;;27.41;49.12
46944;BME280;32678;43.852;25.952;2022-07-09T01:11:50;100856.63;;;27.15;49.12
46944;BME280;32678;43.852;25.952;2022-07-09T01:16:56;100861.94;;;27.25;49.03
46944;BME280;32678;43.852;25.952;2022-07-09T01:21:53;100865.31;;;27.09;47.54
46944;BME280;32678;43.852;25.952;2022-07-09T01:26:51;100851.72;;;26.84;48.13
46944;BME280;32678;43.852;25.952;2022-07-09T01:31:48;100856.00;;;26.86;48.76
46944;BME280;32678;43.852;25.952;2022-07-09T01:36:45;100852.84;;;26.91;49.42
46944;BME280;32678;43.852;25.952;2022-07-09T01:41:43;100851.72;;;26.84;50.25
46944;BME280;32678;43.852;25.952;2022-07-09T01:46:39;100856.94;;;26.95;50.10
46944;BME280;32678;43.852;25.952;2022-07-09T01:51:36;100853.53;;;26.93;46.96
46944;BME280;32678;43.852;25.952;2022-07-09T01:56:33;100851.72;;;26.66;47.75
46944;BME280;32678;43.852;25.952;2022-07-09T02:01:31;100857.88;;;26.58;50.54
46944;BME280;32678;43.852;25.952;2022-07-09T02:06:28;100851.78;;;26.56;51.23
46944;BME280;32678;43.852;25.952;2022-07-09T02:11:25;100846.81;;;26.79;47.86
46944;BME280;32678;43.852;25.952;2022-07-09T02:16:21;100850.34;;;26.80;41.88
46944;BME280;32678;43.852;25.952;2022-07-09T02:21:19;100853.00;;;26.89;40.70
46944;BME280;32678;43.852;25.952;2022-07-09T02:26:15;100858.28;;;26.81;40.22
46944;BME280;32678;43.852;25.952;2022-07-09T02:31:12;100850.03;;;26.65;39.93
46944;BME280;32678;43.852;25.952;2022-07-09T02:36:09;100855.53;;;26.46;40.28
46944;BME280;32678;43.852;25.952;2022-07-09T02:41:06;100858.59;;;26.33;37.71
46944;BME280;32678;43.852;25.952;2022-07-09T02:46:03;100871.47;;;26.20;37.29
46944;BME280;32678;43.852;25.952;2022-07-09T02:51:01;100865.41;;;26.27;39.78
46944;BME280;32678;43.852;25.952;2022-07-09T02:55:57;100875.09;;;26.38;40.08
46944;BME280;32678;43.852;25.952;2022-07-09T03:00:55;100877.56;;;26.49;39.08
46944;BME280;32678;43.852;25.952;2022-07-09T03:05:52;100888.91;;;26.53;36.68
46944;BME280;32678;43.852;25.952;2022-07-09T03:10:48;100881.72;;;26.44;37.31
46944;BME280;32678;43.852;25.952;2022-07-09T03:15:45;100886.44;;;26.32;37.33
46944;BME280;32678;43.852;25.952;2022-07-09T03:20:43;100895.59;;;26.39;37.73
46944;BME280;32678;43.852;25.952;2022-07-09T03:25:41;100897.56;;;26.47;38.45
46944;BME280;32678;43.852;25.952;2022-07-09T03:30:39;100892.25;;;26.55;38.78
46944;BME280;32678;43.852;25.952;2022-07-09T03:35:35;100904.28;;;26.60;36.87
46944;BME280;32678;43.852;25.952;2022-07-09T03:40:33;100912.47;;;26.32;41.08
46944;BME280;32678;43.852;25.952;2022-07-09T03:45:32;100911.91;;;26.38;40.78
46944;BME280;32678;43.852;25.952;2022-07-09T03:50:29;100917.91;;;26.49;40.51
46944;BME280;32678;43.852;25.952;2022-07-09T03:55:26;100917.75;;;26.23;43.85
46944;BME280;32678;43.852;25.952;2022-07-09T04:00:26;100922.38;;;25.46;50.12
46944;BME280;32678;43.852;25.952;2022-07-09T04:05:25;100923.91;;;25.49;50.08
46944;BME280;32678;43.852;25.952;2022-07-09T04:10:22;100924.06;;;25.66;43.68
46944;BME280;32678;43.852;25.952;2022-07-09T04:15:19;100924.47;;;25.81;48.58
46944;BME280;32678;43.852;25.952;2022-07-09T04:20:16;100926.13;;;26.01;41.83
46944;BME280;32678;43.852;25.952;2022-07-09T04:25:13;100931.81;;;25.98;40.19
46944;BME280;32678;43.852;25.952;2022-07-09T04:30:10;100934.50;;;25.88;39.03
46944;BME280;32678;43.852;25.952;2022-07-09T04:35:07;100928.72;;;25.83;39.28
46944;BME280;32678;43.852;25.952;2022-07-09T04:40:05;100930.69;;;25.53;39.26
46944;BME280;32678;43.852;25.952;2022-07-09T04:45:02;100934.09;;;25.35;39.49
46944;BME280;32678;43.852;25.952;2022-07-09T04:49:59;100931.84;;;25.21;39.98
46944;BME280;32678;43.852;25.952;2022-07-09T04:54:55;100938.34;;;24.79;40.89
46944;BME280;32678;43.852;25.952;2022-07-09T04:59:53;100936.28;;;24.82;41.02
46944;BME280;32678;43.852;25.952;2022-07-09T05:04:53;100936.56;;;24.89;41.12
46944;BME280;32678;43.852;25.952;2022-07-09T05:09:50;100945.91;;;24.94;40.81
46944;BME280;32678;43.852;25.952;2022-07-09T05:14:47;100934.53;;;25.40;40.15
46944;BME280;32678;43.852;25.952;2022-07-09T05:19:44;100931.13;;;25.38;40.37
46944;BME280;32678;43.852;25.952;2022-07-09T05:24:41;100935.25;;;25.62;40.11
46944;BME280;32678;43.852;25.952;2022-07-09T05:29:38;100931.53;;;25.82;39.72
46944;BME280;32678;43.852;25.952;2022-07-09T05:34:34;100930.59;;;25.64;40.41
46944;BME280;32678;43.852;25.952;2022-07-09T05:39:33;100931.88;;;25.60;40.27
46944;BME280;32678;43.852;25.952;2022-07-09T05:44:30;100927.56;;;25.86;40.65
46944;BME280;32678;43.852;25.952;2022-07-09T05:49:27;100922.50;;;25.83;40.90
46944;BME280;32678;43.852;25.952;2022-07-09T05:54:24;100923.50;;;25.15;42.01
46944;BME280;32678;43.852;25.952;2022-07-09T05:59:21;100930.56;;;25.25;42.65
46944;BME280;32678;43.852;25.952;2022-07-09T06:04:18;100929.03;;;24.83;44.24
46944;BME280;32678;43.852;25.952;2022-07-09T06:09:14;100930.16;;;25.30;43.10
46944;BME280;32678;43.852;25.952;2022-07-09T06:14:12;100941.56;;;25.13;42.78
46944;BME280;32678;43.852;25.952;2022-07-09T06:19:09;100934.53;;;25.31;42.82
46944;BME280;32678;43.852;25.952;2022-07-09T06:24:06;100931.69;;;25.61;42.97
46944;BME280;32678;43.852;25.952;2022-07-09T06:29:03;100922.84;;;25.61;42.55
46944;BME280;32678;43.852;25.952;2022-07-09T06:33:59;100929.31;;;25.68;42.61
46944;BME280;32678;43.852;25.952;2022-07-09T06:38:57;100927.34;;;25.60;42.49
46944;BME280;32678;43.852;25.952;2022-07-09T06:44:12;100928.25;;;26.07;41.31
46944;BME280;32678;43.852;25.952;2022-07-09T06:49:09;100921.78;;;25.81;42.10
46944;BME280;32678;43.852;25.952;2022-07-09T06:54:06;100921.38;;;25.47;42.74
46944;BME280;32678;43.852;25.952;2022-07-09T06:59:03;100913.47;;;25.36;43.16
46944;BME280;32678;43.852;25.952;2022-07-09T07:04:00;100911.78;;;25.44;43.40
46944;BME280;32678;43.852;25.952;2022-07-09T07:08:56;100909.38;;;25.70;43.33
46944;BME280;32678;43.852;25.952;2022-07-09T07:13:54;100913.22;;;25.58;42.41
46944;BME280;32678;43.852;25.952;2022-07-09T07:18:50;100908.69;;;25.59;42.47
46944;BME280;32678;43.852;25.952;2022-07-09T07:23:47;100914.69;;;25.99;41.24
46944;BME280;32678;43.852;25.952;2022-07-09T07:28:44;100906.56;;;26.18;41.68
46944;BME280;32678;43.852;25.952;2022-07-09T07:33:41;100919.41;;;26.61;40.75
46944;BME280;32678;43.852;25.952;2022-07-09T07:38:39;100924.94;;;26.33;40.16
46944;BME280;32678;43.852;25.952;2022-07-09T07:43:36;100915.66;;;26.45;40.72
46944;BME280;32678;43.852;25.952;2022-07-09T07:48:32;100907.63;;;26.72;39.88
46944;BME280;32678;43.852;25.952;2022-07-09T07:53:33;100908.41;;;26.27;40.38
46944;BME280;32678;43.852;25.952;2022-07-09T07:58:29;100910.34;;;26.62;40.41
46944;BME280;32678;43.852;25.952;2022-07-09T08:03:26;100917.38;;;26.46;40.21
46944;BME280;32678;43.852;25.952;2022-07-09T08:08:28;100917.19;;;26.57;39.23
46944;BME280;32678;43.852;25.952;2022-07-09T08:13:25;100902.97;;;26.37;40.46
46944;BME280;32678;43.852;25.952;2022-07-09T08:18:22;100903.38;;;26.97;39.75
46944;BME280;32678;43.852;25.952;2022-07-09T08:23:19;100899.91;;;27.22;37.91
46944;BME280;32678;43.852;25.952;2022-07-09T08:28:16;100897.59;;;26.92;38.11
46944;BME280;32678;43.852;25.952;2022-07-09T08:33:13;100889.22;;;26.95;38.21
46944;BME280;32678;43.852;25.952;2022-07-09T08:38:10;100886.91;;;27.17;37.74
46944;BME280;32678;43.852;25.952;2022-07-09T08:43:07;100890.78;;;27.15;37.31
46944;BME280;32678;43.852;25.952;2022-07-09T08:48:06;100883.94;;;27.21;37.85
46944;BME280;32678;43.852;25.952;2022-07-09T08:53:04;100878.38;;;27.22;37.35
46944;BME280;32678;43.852;25.952;2022-07-09T08:58:01;100883.38;;;27.52;37.77
46944;BME280;32678;43.852;25.952;2022-07-09T09:02:57;100877.06;;;27.44;37.17
46944;BME280;32678;43.852;25.952;2022-07-09T09:07:55;100877.09;;;27.26;38.17
46944;BME280;32678;43.852;25.952;2022-07-09T09:12:56;100871.53;;;27.28;36.83
46944;BME280;32678;43.852;25.952;2022-07-09T09:17:56;100877.28;;;27.33;36.24
46944;BME280;32678;43.852;25.952;2022-07-09T09:22:53;100880.75;;;27.43;35.21
46944;BME280;32678;43.852;25.952;2022-07-09T09:27:56;100872.22;;;27.65;35.88
46944;BME280;32678;43.852;25.952;2022-07-09T09:32:56;100867.19;;;27.70;35.50
46944;BME280;32678;43.852;25.952;2022-07-09T09:37:56;100861.78;;;27.96;34.85
46944;BME280;32678;43.852;25.952;2022-07-09T09:42:53;100855.25;;;27.73;34.76
46944;BME280;32678;43.852;25.952;2022-07-09T09:47:54;100852.03;;;27.95;34.96
46944;BME280;32678;43.852;25.952;2022-07-09T09:52:52;100850.44;;;27.84;33.43
46944;BME280;32678;43.852;25.952;2022-07-09T09:57:49;100854.00;;;27.93;32.39
46944;BME280;32678;43.852;25.952;2022-07-09T10:02:47;100840.06;;;27.97;32.82
46944;BME280;32678;43.852;25.952;2022-07-09T10:07:44;100840.19;;;28.14;31.30
46944;BME280;32678;43.852;25.952;2022-07-09T10:12:41;100833.03;;;28.38;30.88
46944;BME280;32678;43.852;25.952;2022-07-09T10:17:38;100824.00;;;28.14;32.09
46944;BME280;32678;43.852;25.952;2022-07-09T10:22:36;100810.03;;;28.18;32.39
46944;BME280;32678;43.852;25.952;2022-07-09T10:27:43;100814.44;;;28.27;32.76
46944;BME280;32678;43.852;25.952;2022-07-09T10:32:40;100818.41;;;28.57;32.02
46944;BME280;32678;43.852;25.952;2022-07-09T10:37:40;100794.22;;;28.98;31.49
46944;BME280;32678;43.852;25.952;2022-07-09T10:42:37;100812.75;;;28.84;31.40
46944;BME280;32678;43.852;25.952;2022-07-09T10:47:37;100799.97;;;29.03;30.66
46944;BME280;32678;43.852;25.952;2022-07-09T10:52:34;100798.59;;;28.82;30.88
46944;BME280;32678;43.852;25.952;2022-07-09T10:57:31;100795.91;;;28.91;30.84
46944;BME280;32678;43.852;25.952;2022-07-09T11:02:28;100791.53;;;28.98;30.61
46944;BME280;32678;43.852;25.952;2022-07-09T11:07:25;100793.03;;;28.92;30.70
46944;BME280;32678;43.852;25.952;2022-07-09T11:12:23;100783.16;;;28.42;30.60
46944;BME280;32678;43.852;25.952;2022-07-09T11:17:20;100777.50;;;28.86;30.18
46944;BME280;32678;43.852;25.952;2022-07-09T11:22:17;100772.97;;;29.35;29.86
46944;BME280;32678;43.852;25.952;2022-07-09T11:27:15;100769.19;;;29.52;31.38
46944;BME280;32678;43.852;25.952;2022-07-09T11:32:15;100770.50;;;29.81;31.30
46944;BME280;32678;43.852;25.952;2022-07-09T11:37:12;100775.50;;;30.00;31.58
46944;BME280;32678;43.852;25.952;2022-07-09T11:42:08;100769.59;;;29.96;31.41
46944;BME280;32678;43.852;25.952;2022-07-09T11:47:14;100762.63;;;30.10;31.35
46944;BME280;32678;43.852;25.952;2022-07-09T11:52:18;100758.66;;;30.21;31.10
46944;BME280;32678;43.852;25.952;2022-07-09T11:57:19;100752.16;;;30.38;31.30
46944;BME280;32678;43.852;25.952;2022-07-09T12:02:23;100760.56;;;30.43;30.95
46944;BME280;32678;43.852;25.952;2022-07-09T12:07:19;100746.94;;;30.82;29.91
46944;BME280;32678;43.852;25.952;2022-07-09T12:12:16;100746.34;;;30.72;30.99
46944;BME280;32678;43.852;25.952;2022-07-09T12:17:17;100737.56;;;30.92;29.83
46944;BME280;32678;43.852;25.952;2022-07-09T12:22:14;100742.50;;;31.12;30.47
46944;BME280;32678;43.852;25.952;2022-07-09T12:27:11;100733.16;;;31.29;29.06
46944;BME280;32678;43.852;25.952;2022-07-09T12:32:19;100730.81;;;31.11;30.22
46944;BME280;32678;43.852;25.952;2022-07-09T12:37:16;100719.34;;;31.24;29.77
46944;BME280;32678;43.852;25.952;2022-07-09T12:42:13;100726.81;;;31.22;29.78
46944;BME280;32678;43.852;25.952;2022-07-09T12:47:09;100732.38;;;31.06;29.83
46944;BME280;32678;43.852;25.952;2022-07-09T12:52:06;100735.88;;;30.91;30.56
46944;BME280;32678;43.852;25.952;2022-07-09T12:57:04;100724.16;;;30.76;29.23
46944;BME280;32678;43.852;25.952;2022-07-09T13:02:05;100722.06;;;30.64;29.76
46944;BME280;32678;43.852;25.952;2022-07-09T13:07:03;100712.03;;;30.49;29.58
46944;BME280;32678;43.852;25.952;2022-07-09T13:11:59;100706.81;;;30.40;29.72
46944;BME280;32678;43.852;25.952;2022-07-09T13:16:57;100699.34;;;30.42;29.66
46944;BME280;32678;43.852;25.952;2022-07-09T13:22:14;100694.03;;;30.57;30.46
46944;BME280;32678;43.852;25.952;2022-07-09T13:27:11;100684.78;;;30.74;30.24
46944;BME280;32678;43.852;25.952;2022-07-09T13:32:09;100684.41;;;30.77;29.36
46944;BME280;32678;43.852;25.952;2022-07-09T13:37:06;100681.88;;;30.75;29.52
46944;BME280;32678;43.852;25.952;2022-07-09T13:42:03;100682.41;;;30.71;29.66
46944;BME280;32678;43.852;25.952;2022-07-09T13:47:00;100674.00;;;30.66;29.80
46944;BME280;32678;43.852;25.952;2022-07-09T13:51:57;100674.25;;;30.56;29.80
46944;BME280;32678;43.852;25.952;2022-07-09T13:56:54;100657.38;;;30.54;29.41
46944;BME280;32678;43.852;25.952;2022-07-09T14:01:51;100656.75;;;30.67;29.89
46944;BME280;32678;43.852;25.952;2022-07-09T14:06:48;100665.34;;;30.70;29.25
46944;BME280;32678;43.852;25.952;2022-07-09T14:11:46;100663.91;;;30.60;28.98
46944;BME280;32678;43.852;25.952;2022-07-09T14:16:42;100656.94;;;30.80;29.68
46944;BME280;32678;43.852;25.952;2022-07-09T14:21:40;100658.63;;;30.81;30.01
46944;BME280;32678;43.852;25.952;2022-07-09T14:26:42;100656.56;;;31.06;29.98
46944;BME280;32678;43.852;25.952;2022-07-09T14:31:40;100651.25;;;31.27;29.45
46944;BME280;32678;43.852;25.952;2022-07-09T14:36:37;100651.81;;;31.37;29.80
46944;BME280;32678;43.852;25.952;2022-07-09T14:41:34;100645.91;;;31.48;29.04
46944;BME280;32678;43.852;25.952;2022-07-09T14:46:31;100628.81;;;31.48;29.12
46944;BME280;32678;43.852;25.952;2022-07-09T14:51:29;100626.50;;;31.59;28.87
46944;BME280;32678;43.852;25.952;2022-07-09T14:56:25;100623.03;;;31.51;29.09
46944;BME280;32678;43.852;25.952;2022-07-09T15:01:25;100631.63;;;31.39;29.68
46944;BME280;32678;43.852;25.952;2022-07-09T15:06:22;100623.41;;;31.33;29.42
46944;BME280;32678;43.852;25.952;2022-07-09T15:11:19;100624.63;;;31.16;29.63
46944;BME280;32678;43.852;25.952;2022-07-09T15:16:16;100619.78;;;31.11;30.08
46944;BME280;32678;43.852;25.952;2022-07-09T15:21:13;100620.69;;;31.04;30.18
46944;BME280;32678;43.852;25.952;2022-07-09T15:26:10;100616.84;;;30.98;30.57
46944;BME280;32678;43.852;25.952;2022-07-09T15:31:07;100623.66;;;30.94;30.29
46944;BME280;32678;43.852;25.952;2022-07-09T15:36:04;100624.13;;;30.83;30.90
46944;BME280;32678;43.852;25.952;2022-07-09T15:41:04;100624.56;;;30.72;31.43
46944;BME280;32678;43.852;25.952;2022-07-09T15:46:02;100628.84;;;30.66;32.15
46944;BME280;32678;43.852;25.952;2022-07-09T15:51:00;100621.38;;;30.45;31.67
46944;BME280;32678;43.852;25.952;2022-07-09T15:55:58;100614.59;;;30.27;31.21
46944;BME280;32678;43.852;25.952;2022-07-09T16:00:55;100630.28;;;30.31;31.36
46944;BME280;32678;43.852;25.952;2022-07-09T16:05:52;100633.28;;;30.36;31.55
46944;BME280;32678;43.852;25.952;2022-07-09T16:10:49;100638.81;;;30.43;31.70
46944;BME280;32678;43.852;25.952;2022-07-09T16:15:46;100635.72;;;30.54;31.05
46944;BME280;32678;43.852;25.952;2022-07-09T16:20:42;100641.09;;;30.31;31.90
46944;BME280;32678;43.852;25.952;2022-07-09T16:25:39;100640.56;;;30.13;32.08
46944;BME280;32678;43.852;25.952;2022-07-09T16:30:37;100647.00;;;30.12;32.37
46944;BME280;32678;43.852;25.952;2022-07-09T16:35:34;100642.44;;;30.12;32.32
46944;BME280;32678;43.852;25.952;2022-07-09T16:40:31;100638.94;;;30.04;32.60
46944;BME280;32678;43.852;25.952;2022-07-09T16:45:27;100651.56;;;29.81;32.75
46944;BME280;32678;43.852;25.952;2022-07-09T16:50:25;100646.13;;;29.89;32.78
46944;BME280;32678;43.852;25.952;2022-07-09T16:55:22;100652.88;;;29.85;33.10
46944;BME280;32678;43.852;25.952;2022-07-09T17:00:22;100655.75;;;29.83;34.00
46944;BME280;32678;43.852;25.952;2022-07-09T17:05:18;100661.44;;;29.65;34.91
46944;BME280;32678;43.852;25.952;2022-07-09T17:10:22;100677.53;;;29.43;35.90
46944;BME280;32678;43.852;25.952;2022-07-09T17:15:19;100677.75;;;29.25;36.80
46944;BME280;32678;43.852;25.952;2022-07-09T17:20:16;100675.28;;;29.07;35.50
46944;BME280;32678;43.852;25.952;2022-07-09T17:25:13;100682.72;;;28.97;35.03
46944;BME280;32678;43.852;25.952;2022-07-09T17:30:10;100676.28;;;28.98;34.69
46944;BME280;32678;43.852;25.952;2022-07-09T17:35:09;100668.00;;;29.08;34.35
46944;BME280;32678;43.852;25.952;2022-07-09T17:40:07;100674.06;;;29.10;34.68
46944;BME280;32678;43.852;25.952;2022-07-09T17:45:04;100674.06;;;29.10;34.03
46944;BME280;32678;43.852;25.952;2022-07-09T17:50:02;100672.88;;;29.20;34.07
46944;BME280;32678;43.852;25.952;2022-07-09T17:55:00;100676.06;;;29.24;34.02
46944;BME280;32678;43.852;25.952;2022-07-09T18:00:11;100684.31;;;29.39;33.50
46944;BME280;32678;43.852;25.952;2022-07-09T18:05:10;100692.41;;;29.47;33.57
46944;BME280;32678;43.852;25.952;2022-07-09T18:10:08;100697.13;;;29.45;33.12
46944;BME280;32678;43.852;25.952;2022-07-09T18:15:05;100702.56;;;29.37;33.27
46944;BME280;32678;43.852;25.952;2022-07-09T18:20:03;100694.28;;;29.38;33.36
46944;BME280;32678;43.852;25.952;2022-07-09T18:25:01;100709.78;;;29.44;33.25
46944;BME280;32678;43.852;25.952;2022-07-09T18:29:58;100717.50;;;29.63;32.88
46944;BME280;32678;43.852;25.952;2022-07-09T18:35:04;100719.88;;;29.58;32.53
46944;BME280;32678;43.852;25.952;2022-07-09T18:40:03;100731.41;;;29.44;32.71
46944;BME280;32678;43.852;25.952;2022-07-09T18:45:00;100739.00;;;29.33;33.64
46944;BME280;32678;43.852;25.952;2022-07-09T18:49:59;100748.31;;;29.22;33.37
46944;BME280;32678;43.852;25.952;2022-07-09T18:54:56;100745.94;;;29.27;34.76
46944;BME280;32678;43.852;25.952;2022-07-09T18:59:54;100740.53;;;29.27;34.23
46944;BME280;32678;43.852;25.952;2022-07-09T19:04:51;100753.00;;;29.44;34.20
46944;BME280;32678;43.852;25.952;2022-07-09T19:09:48;100759.28;;;29.37;34.29
46944;BME280;32678;43.852;25.952;2022-07-09T19:14:44;100763.66;;;29.13;34.58
46944;BME280;32678;43.852;25.952;2022-07-09T19:19:42;100759.78;;;29.08;34.45
46944;BME280;32678;43.852;25.952;2022-07-09T19:24:38;100759.47;;;29.11;34.31
46944;BME280;32678;43.852;25.952;2022-07-09T19:29:35;100765.22;;;29.32;34.38
46944;BME280;32678;43.852;25.952;2022-07-09T19:34:32;100762.81;;;29.21;34.72
46944;BME280;32678;43.852;25.952;2022-07-09T19:39:30;100763.13;;;28.61;35.76
46944;BME280;32678;43.852;25.952;2022-07-09T19:44:27;100761.75;;;28.57;36.21
46944;BME280;32678;43.852;25.952;2022-07-09T19:49:23;100762.63;;;28.74;35.56
46944;BME280;32678;43.852;25.952;2022-07-09T19:54:20;100763.50;;;28.82;35.57
46944;BME280;32678;43.852;25.952;2022-07-09T19:59:18;100763.50;;;28.74;36.10
46944;BME280;32678;43.852;25.952;2022-07-09T20:04:14;100771.22;;;28.69;36.11
46944;BME280;32678;43.852;25.952;2022-07-09T20:09:11;100761.75;;;28.65;36.96
46944;BME280;32678;43.852;25.952;2022-07-09T20:14:08;100769.84;;;28.49;37.38
46944;BME280;32678;43.852;25.952;2022-07-09T20:19:05;100762.78;;;28.64;37.44
46944;BME280;32678;43.852;25.952;2022-07-09T20:24:02;100754.69;;;28.48;38.18
46944;BME280;32678;43.852;25.952;2022-07-09T20:28:59;100770.16;;;28.54;38.02
46944;BME280;32678;43.852;25.952;2022-07-09T20:33:56;100770.81;;;28.32;39.36
46944;BME280;32678;43.852;25.952;2022-07-09T20:38:53;100770.88;;;27.72;40.70
46944;BME280;32678;43.852;25.952;2022-07-09T20:43:50;100760.56;;;27.42;40.68
46944;BME280;32678;43.852;25.952;2022-07-09T20:48:46;100728.63;;;26.95;41.44
46944;BME280;32678;43.852;25.952;2022-07-09T20:53:45;100762.53;;;26.88;42.15
46944;BME280;32678;43.852;25.952;2022-07-09T20:58:44;100759.84;;;26.53;43.47
46944;BME280;32678;43.852;25.952;2022-07-09T21:03:41;100764.03;;;26.55;44.09
46944;BME280;32678;43.852;25.952;2022-07-09T21:08:38;100770.63;;;26.16;46.39
46944;BME280;32678;43.852;25.952;2022-07-09T21:13:36;100765.38;;;25.97;47.39
46944;BME280;32678;43.852;25.952;2022-07-09T21:18:33;100772.41;;;25.80;47.77
46944;BME280;32678;43.852;25.952;2022-07-09T21:23:43;100782.38;;;25.41;49.52
46944;BME280;32678;43.852;25.952;2022-07-09T21:28:40;100783.81;;;25.26;50.02
46944;BME280;32678;43.852;25.952;2022-07-09T21:33:38;100784.69;;;25.17;50.37
46944;BME280;32678;43.852;25.952;2022-07-09T21:38:38;100784.66;;;25.07;51.12
46944;BME280;32678;43.852;25.952;2022-07-09T21:43:36;100781.88;;;24.89;51.40
46944;BME280;32678;43.852;25.952;2022-07-09T21:48:33;100780.44;;;24.76;51.23
46944;BME280;32678;43.852;25.952;2022-07-09T21:53:31;100786.22;;;24.62;51.57
46944;BME280;32678;43.852;25.952;2022-07-09T21:58:28;100789.47;;;24.65;51.68
46944;BME280;32678;43.852;25.952;2022-07-09T22:03:24;100788.88;;;24.52;52.36
46944;BME280;32678;43.852;25.952;2022-07-09T22:08:21;100778.19;;;24.62;52.36
46944;BME280;32678;43.852;25.952;2022-07-09T22:13:19;100786.00;;;24.34;52.97
46944;BME280;32678;43.852;25.952;2022-07-09T22:18:16;100781.50;;;24.25;53.41
46944;BME280;32678;43.852;25.952;2022-07-09T22:23:13;100769.00;;;24.05;54.28
46944;BME280;32678;43.852;25.952;2022-07-09T22:28:10;100781.78;;;24.22;54.49
46944;BME280;32678;43.852;25.952;2022-07-09T22:33:07;100770.81;;;24.04;55.31
46944;BME280;32678;43.852;25.952;2022-07-09T22:38:04;100774.00;;;24.19;54.85
46944;BME280;32678;43.852;25.952;2022-07-09T22:43:01;100771.75;;;24.34;55.17
46944;BME280;32678;43.852;25.952;2022-07-09T22:47:58;100765.88;;;24.49;54.11
46944;BME280;32678;43.852;25.952;2022-07-09T22:52:55;100777.53;;;24.29;55.54
46944;BME280;32678;43.852;25.952;2022-07-09T22:57:52;100766.31;;;24.54;54.92
46944;BME280;32678;43.852;25.952;2022-07-09T23:02:49;100770.72;;;24.15;55.90
46944;BME280;32678;43.852;25.952;2022-07-09T23:07:49;100765.56;;;23.84;56.36
46944;BME280;32678;43.852;25.952;2022-07-09T23:13:04;100774.81;;;23.70;57.29
46944;BME280;32678;43.852;25.952;2022-07-09T23:18:01;100770.06;;;23.83;57.03
46944;BME280;32678;43.852;25.952;2022-07-09T23:22:59;100766.44;;;23.63;58.09
46944;BME280;32678;43.852;25.952;2022-07-09T23:27:56;100772.06;;;23.60;58.44
46944;BME280;32678;43.852;25.952;2022-07-09T23:32:53;100774.19;;;23.66;57.72
46944;BME280;32678;43.852;25.952;2022-07-09T23:37:53;100774.72;;;23.60;57.93
46944;BME280;32678;43.852;25.952;2022-07-09T23:42:50;100772.78;;;23.42;58.55
46944;BME280;32678;43.852;25.952;2022-07-09T23:47:47;100776.72;;;23.58;58.22
46944;BME280;32678;43.852;25.952;2022-07-09T23:52:45;100775.72;;;23.59;58.41
46944;BME280;32678;43.852;25.952;2022-07-09T23:57:44;100771.03;;;23.52;58.32
